Time;durP1;ratioP1;P1;durP2;ratioP2;P2;SDS_P1;SDS_P2;PMS_P1;PMS_P2;Temp;Humidity;BMP_temperature;BMP_pressure;BME280_temperature;BME280_humidity;BME280_pressure;Samples;Min_cycle;Max_cycle;Signal;HPM_P1;HPM_P2
2022/06/07 00:00:18;;;;;;;7.00;5.75;;;;;;;10.83;77.66;99159.34;4955438;28;20065;-66
2022/06/07 00:02:43;;;;;;;9.10;6.07;;;;;;;10.78;77.82;99161.13;4971799;28;20445;-67
2022/06/07 00:05:09;;;;;;;7.25;5.38;;;;;;;10.72;77.64;99164.75;4972664;28;20049;-67
2022/06/07 00:07:35;;;;;;;7.88;4.90;;;;;;;10.71;76.50;99168.44;4972290;28;20050;-67
2022/06/07 00:10:00;;;;;;;8.98;4.70;;;;;;;10.65;76.53;99170.22;4972278;28;20093;-66
2022/06/07 00:12:26;;;;;;;6.65;5.00;;;;;;;10.62;76.29;99170.72;4972378;28;20500;-67
2022/06/07 00:14:52;;;;;;;6.25;5.10;;;;;;;10.58;76.16;99173.03;4971790;28;20097;-67
2022/06/07 00:17:18;;;;;;;7.38;5.15;;;;;;;10.54;75.70;99168.47;4972410;28;20070;-68
2022/06/07 00:19:45;;;;;;;5.78;4.30;;;;;;;10.52;75.24;99181.94;4955178;28;20050;-67
2022/06/07 00:22:11;;;;;;;5.97;4.15;;;;;;;10.49;74.69;99173.69;4972104;28;20038;-67
2022/06/07 00:24:36;;;;;;;4.72;4.20;;;;;;;10.46;73.84;99174.97;4955086;28;20456;-68
2022/06/07 00:27:03;;;;;;;6.10;4.10;;;;;;;10.41;74.84;99170.41;4972390;28;20043;-66
2022/06/07 00:29:29;;;;;;;8.38;4.60;;;;;;;10.39;73.96;99163.72;4954946;28;20046;-68
2022/06/07 00:31:55;;;;;;;5.18;4.00;;;;;;;10.35;73.07;99163.41;4972114;28;20293;-66
2022/06/07 00:34:20;;;;;;;7.78;4.93;;;;;;;10.32;74.31;99166.53;4954451;28;20038;-66
2022/06/07 00:36:46;;;;;;;6.22;3.65;;;;;;;10.30;72.92;99167.84;4972368;28;20543;-68
2022/06/07 00:39:12;;;;;;;10.07;4.15;;;;;;;10.30;72.91;99170.47;4954679;28;20406;-67
2022/06/07 00:41:38;;;;;;;5.60;3.15;;;;;;;10.28;71.61;99168.06;4938679;28;20054;-67
2022/06/07 00:44:22;;;;;;;3.83;3.40;;;;;;;10.26;71.58;99162.16;4972160;28;20042;-67
2022/06/07 00:47:18;;;;;;;5.55;3.58;;;;;;;10.24;71.95;99165.06;4954881;28;20085;-67
2022/06/07 00:50:03;;;;;;;6.22;3.33;;;;;;;10.25;71.71;99163.22;4954634;28;20039;-66
2022/06/07 00:52:31;;;;;;;3.50;2.97;;;;;;;10.28;70.29;99156.66;4944302;28;20066;-67
2022/06/07 00:54:57;;;;;;;4.20;3.40;;;;;;;10.32;70.16;99165.72;4954537;28;20047;-67
2022/06/07 00:57:40;;;;;;;4.88;3.10;;;;;;;10.39;69.71;99167.19;4954655;28;20050;-67
2022/06/07 01:00:15;;;;;;;4.43;2.83;;;;;;;10.48;68.28;99156.19;4954564;28;20515;-67
2022/06/07 01:02:41;;;;;;;3.88;3.28;;;;;;;10.60;68.63;99160.34;4939278;28;20042;-66
2022/06/07 01:05:07;;;;;;;4.80;2.92;;;;;;;10.72;67.91;99159.44;4975144;28;20053;-67
2022/06/07 01:13:05;;;;;;;4.40;3.50;;;;;;;11.31;65.65;99168.44;4958462;28;20066;-66
2022/06/07 01:15:31;;;;;;;4.32;3.13;;;;;;;11.53;64.48;99167.63;4942275;28;20146;-67
2022/06/07 01:18:01;;;;;;;5.00;3.00;;;;;;;11.77;63.07;99165.50;4941711;28;20420;-67
2022/06/07 01:20:29;;;;;;;3.70;3.15;;;;;;;11.98;63.28;99169.97;4957830;28;20208;-67
2022/06/07 01:22:55;;;;;;;8.45;3.47;;;;;;;12.24;62.42;99170.22;4957414;28;20090;-66
2022/06/07 01:25:23;;;;;;;6.28;3.00;;;;;;;12.48;60.87;99166.13;4957463;28;20530;-67
2022/06/07 01:27:49;;;;;;;6.07;3.20;;;;;;;12.76;60.50;99164.19;4957717;28;20057;-67
2022/06/07 01:30:15;;;;;;;5.72;3.10;;;;;;;13.05;58.71;99166.47;4957550;28;20130;-67
2022/06/07 01:32:40;;;;;;;4.78;2.97;;;;;;;13.31;58.11;99164.75;4957399;28;20050;-67
2022/06/07 01:35:07;;;;;;;3.60;2.80;;;;;;;13.59;57.15;99164.34;4957786;28;20046;-67
2022/06/07 01:37:34;;;;;;;7.22;2.75;;;;;;;13.94;55.84;99177.97;4974644;28;20047;-67
2022/06/07 01:42:43;;;;;;;3.50;2.70;;;;;;;14.53;53.36;99175.63;4957400;28;20504;-67
2022/06/07 01:45:09;;;;;;;3.33;2.90;;;;;;;14.83;52.80;99187.34;4957362;28;20057;-67
2022/06/07 01:47:38;;;;;;;7.28;2.88;;;;;;;14.99;51.50;99185.41;4957414;28;20531;-68
2022/06/07 01:50:05;;;;;;;4.63;2.33;;;;;;;15.32;50.37;99183.97;4957516;28;20042;-67
2022/06/07 01:52:33;;;;;;;3.65;2.60;;;;;;;15.61;49.29;99185.97;4974328;28;20042;-67
2022/06/07 01:55:05;;;;;;;3.45;2.67;;;;;;;15.85;49.22;99186.13;4940862;28;20054;-67
2022/06/07 01:57:37;;;;;;;3.92;2.75;;;;;;;16.07;48.72;99185.75;4957612;28;20508;-67
2022/06/07 02:00:08;;;;;;;3.28;2.35;;;;;;;16.28;47.73;99186.38;4974600;28;20055;-68
2022/06/07 02:02:39;;;;;;;6.05;2.70;;;;;;;16.45;47.35;99183.31;4958976;28;20042;-67
2022/06/07 02:05:05;;;;;;;2.85;2.40;;;;;;;16.53;47.02;99188.84;4941595;28;20130;-67
2022/06/07 02:07:31;;;;;;;6.63;2.80;;;;;;;17.00;46.35;99184.69;4958228;28;20246;-66
2022/06/07 02:10:02;;;;;;;7.00;2.85;;;;;;;17.20;45.24;99194.34;4958185;28;20497;-66
2022/06/07 02:12:31;;;;;;;7.40;2.60;;;;;;;17.36;45.27;99192.31;4942578;28;20042;-67
2022/06/07 02:15:00;;;;;;;4.00;2.72;;;;;;;17.69;44.86;99189.75;4956058;28;20055;-66
2022/06/07 02:17:26;;;;;;;3.08;2.30;;;;;;;17.86;44.10;99195.44;4956783;28;20504;-67
2022/06/07 02:20:27;;;;;;;5.18;2.75;;;;;;;18.19;43.26;99189.31;4903035;29;20571;-66
2022/06/07 02:22:53;;;;;;;4.15;2.70;;;;;;;18.28;42.82;99191.03;4940913;28;20058;-66
2022/06/07 02:25:19;;;;;;;5.70;2.60;;;;;;;18.84;41.76;99202.75;4956678;28;20050;-66
2022/06/07 02:27:44;;;;;;;4.97;2.55;;;;;;;18.96;40.96;99202.25;4940545;28;20050;-67
2022/06/07 02:30:11;;;;;;;5.85;2.70;;;;;;;19.32;40.51;99204.25;4925083;29;20058;-67
2022/06/07 02:32:37;;;;;;;5.30;3.55;;;;;;;19.67;38.97;99206.22;4922153;29;20043;-67
2022/06/07 02:35:04;;;;;;;5.13;2.22;;;;;;;19.72;39.07;99198.06;4968037;28;20043;-68
2022/06/07 02:37:31;;;;;;;3.28;2.53;;;;;;;19.92;38.94;99204.09;4956777;28;20047;-66
2022/06/07 02:39:57;;;;;;;3.28;2.60;;;;;;;19.92;38.81;99212.97;4940948;28;20050;-67
2022/06/07 02:42:27;;;;;;;6.05;2.40;;;;;;;19.79;39.27;99208.41;4956659;28;20093;-66
2022/06/07 02:44:53;;;;;;;3.53;2.40;;;;;;;19.78;39.23;99208.72;4957896;28;20489;-66
2022/06/07 02:47:19;;;;;;;3.35;2.17;;;;;;;19.91;38.76;99221.31;4956404;28;20563;-67
2022/06/07 02:49:52;;;;;;;8.45;3.38;;;;;;;19.91;38.82;99216.75;4956003;28;20038;-66
2022/06/07 02:52:18;;;;;;;2.33;2.13;;;;;;;20.07;38.21;99227.16;4940524;28;20432;-66
2022/06/07 02:54:52;;;;;;;10.18;2.70;;;;;;;20.32;38.19;99223.06;4956016;28;20050;-66
2022/06/07 02:57:17;;;;;;;4.80;2.42;;;;;;;20.53;38.35;99226.09;4973414;28;20268;-69
2022/06/07 02:59:45;;;;;;;7.75;2.22;;;;;;;20.87;37.79;99226.31;4940400;28;20134;-66
2022/06/07 03:02:11;;;;;;;5.45;2.63;;;;;;;20.46;37.87;99225.72;4973511;28;20058;-66
2022/06/07 03:04:37;;;;;;;4.35;2.47;;;;;;;20.17;37.32;99230.41;4956497;28;20452;-67
2022/06/07 03:07:04;;;;;;;3.33;1.90;;;;;;;20.20;37.68;99227.09;4956286;28;20046;-66
2022/06/07 03:09:31;;;;;;;5.40;2.20;;;;;;;20.36;37.22;99241.00;4955803;28;20598;-64
2022/06/07 03:11:59;;;;;;;6.68;2.22;;;;;;;20.31;36.90;99243.03;4956312;28;20093;-66
2022/06/07 03:14:26;;;;;;;5.10;2.40;;;;;;;20.30;37.54;99244.94;4955304;28;20050;-66
2022/06/07 03:16:51;;;;;;;2.72;2.03;;;;;;;20.48;37.02;99229.69;4973647;28;20097;-66
2022/06/07 03:19:18;;;;;;;4.72;2.30;;;;;;;20.56;36.97;99237.06;4955198;28;20330;-64
2022/06/07 03:21:44;;;;;;;3.80;2.00;;;;;;;20.54;36.59;99238.47;4939946;28;20461;-66
2022/06/07 03:24:09;;;;;;;4.22;2.15;;;;;;;20.67;36.39;99239.50;4955696;28;20038;-66
2022/06/07 03:26:36;;;;;;;3.17;2.42;;;;;;;20.81;36.39;99237.53;4938818;28;20471;-66
2022/06/07 03:29:14;;;;;;;5.60;2.35;;;;;;;20.83;36.22;99238.03;4955211;28;20138;-68
2022/06/07 03:31:41;;;;;;;5.53;2.00;;;;;;;21.08;35.73;99240.03;4955525;28;20050;-68
2022/06/07 03:34:09;;;;;;;1.77;1.65;;;;;;;21.01;35.55;99244.28;4955111;28;20101;-68
2022/06/07 03:36:39;;;;;;;2.78;1.83;;;;;;;20.80;36.18;99239.44;4955729;28;20527;-68
2022/06/07 03:39:07;;;;;;;3.90;1.95;;;;;;;20.82;36.62;99241.81;4939444;28;20049;-70
2022/06/07 03:41:36;;;;;;;3.22;1.73;;;;;;;20.88;35.72;99243.25;4955438;28;20057;-67
2022/06/07 03:44:09;;;;;;;3.00;1.80;;;;;;;20.80;35.59;99236.72;4955265;28;20692;-69
2022/06/07 03:46:42;;;;;;;4.97;1.90;;;;;;;20.79;35.91;99237.81;4955234;28;20047;-68
2022/06/07 03:49:08;;;;;;;4.47;1.85;;;;;;;20.91;35.22;99226.47;4954989;28;20575;-69
2022/06/07 03:51:33;;;;;;;3.17;1.88;;;;;;;21.18;35.00;99235.47;4972420;28;20137;-68
2022/06/07 03:54:00;;;;;;;2.78;1.92;;;;;;;21.22;34.87;99239.94;4972740;28;20053;-69
2022/06/07 03:56:28;;;;;;;4.03;1.80;;;;;;;21.03;35.01;99242.06;4939595;28;20508;-68
2022/06/07 03:58:58;;;;;;;2.08;1.67;;;;;;;20.85;36.40;99242.00;4938760;28;20042;-69
2022/06/07 04:01:25;;;;;;;4.65;1.90;;;;;;;20.81;35.49;99242.91;4954985;28;20042;-68
2022/06/07 04:03:53;;;;;;;3.22;1.90;;;;;;;20.63;35.74;99237.41;4955236;28;20050;-69
2022/06/07 04:06:28;;;;;;;3.25;1.60;;;;;;;20.59;36.09;99249.13;4954977;28;20045;-69
2022/06/07 04:08:59;;;;;;;2.97;1.88;;;;;;;20.49;36.30;99244.75;4954800;28;20042;-69
2022/06/07 04:11:28;;;;;;;4.18;1.70;;;;;;;20.68;35.78;99251.84;4955045;28;20535;-65
2022/06/07 04:13:58;;;;;;;2.53;1.70;;;;;;;20.62;35.71;99243.13;4955092;28;20054;-66
2022/06/07 04:16:27;;;;;;;3.72;1.75;;;;;;;20.78;35.50;99248.91;4955194;28;20050;-66
2022/06/07 04:18:58;;;;;;;2.85;1.60;;;;;;;20.99;35.67;99249.97;4939419;28;20045;-65
2022/06/07 04:21:25;;;;;;;3.70;1.50;;;;;;;21.01;35.48;99234.31;4954980;28;20094;-66
2022/06/07 04:23:56;;;;;;;2.25;1.58;;;;;;;21.17;34.79;99239.28;4955139;28;20046;-65
2022/06/07 04:26:24;;;;;;;6.47;1.75;;;;;;;21.09;35.75;99238.94;4954556;28;20112;-65
2022/06/07 04:28:52;;;;;;;3.17;1.60;;;;;;;21.20;34.60;99242.13;4954699;28;20503;-66
2022/06/07 04:31:21;;;;;;;9.40;2.17;;;;;;;21.25;34.78;99238.53;4954326;28;20055;-66
2022/06/07 04:33:48;;;;;;;3.85;1.80;;;;;;;21.41;34.31;99247.78;4954865;28;20510;-71
2022/06/07 04:36:22;;;;;;;5.47;1.65;;;;;;;21.25;34.48;99243.91;4939289;28;20050;-67
2022/06/07 04:38:50;;;;;;;5.88;1.80;;;;;;;21.16;35.13;99241.19;4954513;28;20046;-67
2022/06/07 04:41:22;;;;;;;2.35;1.50;;;;;;;21.48;34.42;99244.66;4954505;28;20047;-67
2022/06/07 04:43:53;;;;;;;2.95;1.85;;;;;;;21.61;33.51;99237.53;4935733;29;20419;-66
2022/06/07 04:46:21;;;;;;;3.13;1.58;;;;;;;21.60;33.94;99244.84;4935294;28;20104;-68
2022/06/07 04:48:50;;;;;;;3.95;1.70;;;;;;;21.70;33.72;99239.13;4921837;28;20066;-68
2022/06/07 04:51:31;;;;;;;3.58;1.60;;;;;;;21.52;34.23;99238.31;4971662;28;20396;-65
2022/06/07 04:54:05;;;;;;;7.65;1.70;;;;;;;21.59;34.91;99237.88;4940701;28;20042;-67
2022/06/07 04:56:37;;;;;;;5.18;1.40;;;;;;;21.50;33.96;99245.94;4949404;28;20046;-65
2022/06/07 04:59:05;;;;;;;3.05;1.55;;;;;;;21.64;33.91;99243.09;4922518;28;20035;-65
2022/06/07 05:01:37;;;;;;;2.92;1.70;;;;;;;21.58;34.13;99235.47;4906786;28;20146;-65
2022/06/07 05:04:09;;;;;;;3.75;1.73;;;;;;;21.57;35.13;99247.38;4954182;28;20030;-65
2022/06/07 05:06:39;;;;;;;6.53;1.83;;;;;;;21.65;34.20;99233.91;4938502;28;20393;-65
2022/06/07 05:09:20;;;;;;;3.80;1.90;;;;;;;21.41;33.57;99231.63;4954078;28;20049;-66
2022/06/07 05:11:52;;;;;;;2.83;1.48;;;;;;;21.09;34.80;99238.16;4948281;28;20584;-67
2022/06/07 05:14:18;;;;;;;4.72;2.03;;;;;;;20.77;35.92;99236.56;4950615;28;20083;-66
2022/06/07 05:16:46;;;;;;;4.03;2.38;;;;;;;20.61;35.88;99242.31;4950318;29;20075;-66
2022/06/07 05:19:18;;;;;;;4.88;2.33;;;;;;;20.48;35.98;99245.84;4950680;29;20054;-69
2022/06/07 05:21:46;;;;;;;2.55;1.40;;;;;;;20.42;35.28;99247.88;4950250;29;20071;-68
2022/06/07 05:24:12;;;;;;;2.88;1.50;;;;;;;20.30;35.62;99250.31;4951377;29;20039;-68
2022/06/07 05:26:41;;;;;;;2.60;1.48;;;;;;;20.18;35.21;99240.09;4934219;29;20047;-67
2022/06/07 05:29:15;;;;;;;4.70;1.70;;;;;;;19.98;35.82;99248.63;4950407;28;20079;-70
2022/06/07 05:31:41;;;;;;;3.50;1.48;;;;;;;19.70;37.18;99250.56;4934931;29;20394;-68
2022/06/07 05:34:08;;;;;;;2.38;1.50;;;;;;;19.46;35.63;99251.53;4950433;28;20058;-67
2022/06/07 05:36:37;;;;;;;7.93;2.13;;;;;;;19.22;35.96;99242.88;4950182;29;20069;-68
2022/06/07 05:39:04;;;;;;;2.80;1.20;;;;;;;19.01;35.33;99253.22;4950813;28;20043;-67
2022/06/07 05:41:32;;;;;;;1.35;1.25;;;;;;;18.94;35.34;99247.41;4950138;29;20062;-68
2022/06/07 05:44:06;;;;;;;8.20;2.80;;;;;;;18.70;36.50;99251.00;4950863;28;20053;-66
2022/06/07 05:46:36;;;;;;;2.40;1.45;;;;;;;18.51;36.81;99258.31;4950151;29;20054;-66
2022/06/07 05:49:19;;;;;;;4.05;1.50;;;;;;;18.43;36.06;99242.88;4934452;29;20421;-69
2022/06/07 05:52:07;;;;;;;4.65;1.20;;;;;;;18.45;34.45;99246.88;4955586;28;20055;-66
2022/06/07 05:54:35;;;;;;;4.70;1.40;;;;;;;18.38;35.24;99257.97;4922525;29;20484;-64
2022/06/07 05:57:04;;;;;;;2.78;1.20;;;;;;;18.23;35.82;99246.66;4954053;29;20078;-66
2022/06/07 05:59:30;;;;;;;4.32;1.10;;;;;;;18.07;35.61;99251.47;4933666;29;20511;-64
2022/06/07 06:01:56;;;;;;;1.77;1.33;;;;;;;17.75;35.41;99265.53;4962876;28;20468;-66
2022/06/07 06:04:26;;;;;;;3.83;1.30;;;;;;;17.69;35.65;99252.19;4951365;28;20077;-66
2022/06/07 06:06:58;;;;;;;2.55;1.30;;;;;;;17.67;34.86;99266.94;4949831;29;20057;-68
2022/06/07 06:12:13;;;;;;;4.20;1.13;;;;;;;17.85;34.78;99244.78;4951747;28;20047;-67
2022/06/07 06:14:53;;;;;;;3.75;1.30;;;;;;;17.68;33.89;99241.75;4950885;29;20118;-67
2022/06/07 06:17:26;;;;;;;1.42;1.30;;;;;;;17.69;34.83;99243.34;4952830;28;20126;-69
2022/06/07 06:19:58;;;;;;;6.35;1.23;;;;;;;17.63;34.89;99250.66;4935339;29;20075;-69
2022/06/07 06:22:23;;;;;;;4.13;1.20;;;;;;;17.44;34.58;99250.63;4951935;28;20419;-66
2022/06/07 06:24:56;;;;;;;2.35;1.27;;;;;;;17.35;35.19;99243.47;4932076;29;20082;-67
2022/06/07 06:27:23;;;;;;;1.83;1.02;;;;;;;17.42;35.40;99238.59;4949305;28;20505;-66
2022/06/07 06:29:51;;;;;;;6.25;1.10;;;;;;;17.43;35.21;99234.81;4923976;29;20142;-67
2022/06/07 06:32:18;;;;;;;4.25;1.20;;;;;;;17.41;35.60;99239.66;4933361;29;20050;-67
2022/06/07 06:34:46;;;;;;;3.78;1.10;;;;;;;17.40;34.60;99228.16;4950996;29;20051;-67
2022/06/07 06:37:13;;;;;;;2.35;1.10;;;;;;;17.50;34.94;99240.66;4951809;28;20039;-69
2022/06/07 06:39:41;;;;;;;3.42;1.30;;;;;;;17.56;35.83;99228.78;4951536;28;20595;-70
2022/06/07 06:42:07;;;;;;;4.35;1.27;;;;;;;17.60;34.47;99237.81;4934403;29;20051;-71
2022/06/07 06:44:50;;;;;;;1.70;1.30;;;;;;;17.32;34.01;99239.47;4949932;28;20039;-70
2022/06/07 06:47:17;;;;;;;5.63;1.13;;;;;;;17.34;31.47;99231.97;4950850;28;20046;-69
2022/06/07 06:49:43;;;;;;;2.70;1.10;;;;;;;17.31;33.36;99234.44;4947690;29;20047;-69
2022/06/07 06:52:10;;;;;;;1.65;1.15;;;;;;;17.32;32.59;99236.81;4949567;28;20047;-69
2022/06/07 06:54:37;;;;;;;2.15;1.00;;;;;;;17.37;32.44;99228.72;4949664;29;20532;-72
2022/06/07 06:57:09;;;;;;;1.50;1.30;;;;;;;17.48;32.38;99221.38;4951810;28;20047;-68
2022/06/07 06:59:34;;;;;;;2.45;1.02;;;;;;;17.49;32.19;99221.06;4949615;29;20469;-70
2022/06/07 07:02:04;;;;;;;4.75;1.27;;;;;;;17.45;32.21;99222.72;4951089;28;20031;-67
2022/06/07 07:04:43;;;;;;;2.72;1.00;;;;;;;17.47;32.77;99233.16;4937503;29;20039;-66
2022/06/07 07:07:09;;;;;;;4.97;1.27;;;;;;;17.37;31.40;99228.72;4950105;28;20140;-67
2022/06/07 07:09:35;;;;;;;1.23;0.90;;;;;;;17.40;31.42;99230.81;4950745;29;20127;-66
2022/06/07 07:12:04;;;;;;;2.45;1.10;;;;;;;17.47;29.59;99225.13;4951205;29;20049;-67
2022/06/07 07:14:48;;;;;;;3.35;1.13;;;;;;;17.56;31.08;99223.41;4951212;29;20065;-67
2022/06/07 07:17:20;;;;;;;2.35;1.10;;;;;;;17.61;30.40;99217.19;4949876;28;20042;-68
2022/06/07 07:19:49;;;;;;;1.75;0.98;;;;;;;17.62;30.52;99226.84;4948312;29;20565;-67
2022/06/07 07:22:18;;;;;;;2.42;1.00;;;;;;;17.59;30.89;99214.81;4930575;29;20058;-68
2022/06/07 07:24:44;;;;;;;4.25;1.23;;;;;;;17.61;30.43;99209.94;4913627;29;20048;-68
2022/06/07 07:27:13;;;;;;;2.90;1.27;;;;;;;17.69;30.14;99213.88;4947727;29;20043;-68
2022/06/07 07:29:40;;;;;;;3.22;1.15;;;;;;;17.69;29.99;99211.19;4932645;29;20071;-68
2022/06/07 07:32:12;;;;;;;1.48;1.10;;;;;;;17.63;30.64;99223.06;4947982;28;20049;-69
2022/06/07 07:34:45;;;;;;;6.30;1.30;;;;;;;17.62;31.06;99211.53;4931373;29;20146;-68
2022/06/07 07:37:11;;;;;;;3.33;1.20;;;;;;;17.63;30.78;99215.00;4947987;28;20050;-68
2022/06/07 07:39:38;;;;;;;5.53;1.40;;;;;;;17.70;31.65;99216.25;4947842;29;20055;-70
2022/06/07 07:42:08;;;;;;;2.25;1.20;;;;;;;17.75;31.80;99220.75;4912913;29;20114;-68
2022/06/07 07:44:38;;;;;;;2.47;1.05;;;;;;;17.78;31.56;99220.19;4929994;29;20056;-69
2022/06/07 07:47:06;;;;;;;1.65;1.10;;;;;;;17.61;31.77;99217.97;4947109;29;20397;-70
2022/06/07 07:49:37;;;;;;;1.60;1.10;;;;;;;17.67;30.82;99216.81;4917014;29;20051;-68
2022/06/07 07:52:05;;;;;;;1.02;1.00;;;;;;;17.66;30.80;99217.13;4949237;29;20078;-68
2022/06/07 07:54:32;;;;;;;3.22;1.20;;;;;;;17.79;30.20;99213.75;4950025;28;20054;-68
2022/06/07 07:57:02;;;;;;;4.13;1.50;;;;;;;17.85;31.78;99211.78;4951793;29;20462;-69
2022/06/07 07:59:29;;;;;;;2.25;1.20;;;;;;;17.82;30.88;99209.69;4947239;28;20295;-68
2022/06/07 08:01:59;;;;;;;2.72;1.40;;;;;;;17.79;31.62;99213.75;4932343;29;20083;-68
2022/06/07 08:04:25;;;;;;;1.00;1.00;;;;;;;17.84;31.04;99211.00;4947104;28;20194;-69
2022/06/07 08:06:52;;;;;;;3.78;1.30;;;;;;;17.79;31.98;99221.00;4930927;29;20394;-68
2022/06/07 08:09:18;;;;;;;2.72;1.00;;;;;;;17.88;31.04;99205.84;4951254;28;20054;-69
2022/06/07 08:11:44;;;;;;;2.65;1.35;;;;;;;17.89;31.38;99204.78;4948294;28;20043;-69
2022/06/07 08:14:14;;;;;;;3.42;1.48;;;;;;;17.92;30.54;99202.31;4954121;28;20062;-70
2022/06/07 08:16:40;;;;;;;1.42;1.30;;;;;;;17.84;30.86;99200.28;4968420;28;20053;-70
2022/06/07 08:19:08;;;;;;;1.85;1.58;;;;;;;18.02;31.43;99181.78;4968955;28;20066;-71
2022/06/07 08:21:34;;;;;;;6.28;1.55;;;;;;;18.15;30.65;99197.16;4966400;28;20058;-70
2022/06/07 08:24:01;;;;;;;1.17;1.08;;;;;;;18.17;30.30;99182.34;4952344;28;20463;-68
2022/06/07 08:26:27;;;;;;;1.58;1.10;;;;;;;18.09;30.84;99185.72;4967617;28;20528;-68
2022/06/07 08:28:54;;;;;;;1.95;1.10;;;;;;;18.06;31.43;99182.78;4969007;28;20518;-69
2022/06/07 08:31:27;;;;;;;3.42;1.20;;;;;;;17.98;32.38;99175.44;4934048;28;20046;-68
2022/06/07 08:39:22;;;;;;;4.50;1.50;;;;;;;18.13;30.24;99177.88;4969066;28;20580;-68
2022/06/07 08:41:51;;;;;;;6.80;1.50;;;;;;;18.13;32.19;99185.91;4968614;28;20051;-68
2022/06/07 08:44:38;;;;;;;2.55;1.60;;;;;;;18.15;31.91;99176.50;4969026;28;20313;-68
2022/06/07 08:47:19;;;;;;;6.65;1.60;;;;;;;18.18;31.50;99180.47;4968870;28;20082;-70
2022/06/07 08:49:45;;;;;;;6.13;1.40;;;;;;;18.19;31.92;99178.59;4967868;28;20094;-69
2022/06/07 08:52:31;;;;;;;2.17;1.20;;;;;;;18.22;31.60;99168.06;4950496;28;20050;-67
2022/06/07 08:55:01;;;;;;;3.15;1.50;;;;;;;18.22;31.99;99169.97;4969039;28;20187;-68
2022/06/07 08:57:37;;;;;;;1.40;1.10;;;;;;;18.17;31.02;99174.28;4952239;28;20047;-67
2022/06/07 09:00:30;;;;;;;3.30;1.40;;;;;;;18.24;31.41;99162.41;4934598;28;20141;-67
2022/06/07 09:03:14;;;;;;;1.48;1.35;;;;;;;18.14;33.20;99171.41;4934090;28;20497;-67
2022/06/07 09:05:40;;;;;;;2.88;1.27;;;;;;;18.07;33.39;99176.34;4966287;28;20650;-67
2022/06/07 09:08:05;;;;;;;5.10;1.30;;;;;;;18.12;32.90;99169.03;4949696;28;20047;-66
2022/06/07 09:13:23;;;;;;;3.65;1.58;;;;;;;18.25;32.59;99164.78;4968336;28;20031;-67
2022/06/07 09:15:55;;;;;;;2.03;1.20;;;;;;;18.17;33.15;99160.88;4968055;28;20649;-68
2022/06/07 09:18:24;;;;;;;1.25;1.15;;;;;;;18.12;32.07;99162.88;4953334;28;20126;-67
2022/06/07 09:20:56;;;;;;;5.78;1.10;;;;;;;18.14;33.27;99158.00;4967646;28;20039;-66
2022/06/07 09:23:33;;;;;;;5.68;1.20;;;;;;;18.29;31.40;99152.38;4968558;28;20078;-67
2022/06/07 09:26:19;;;;;;;2.22;1.23;;;;;;;18.33;33.51;99150.72;4985786;28;20061;-68
2022/06/07 09:28:47;;;;;;;3.25;1.30;;;;;;;18.48;32.24;99149.66;4953030;28;20621;-67
2022/06/07 09:31:16;;;;;;;4.72;1.65;;;;;;;18.56;30.34;99148.16;4954266;28;20043;-68
2022/06/07 09:33:56;;;;;;;3.97;1.20;;;;;;;18.59;29.51;99139.53;4956423;28;20051;-69
2022/06/07 09:36:33;;;;;;;3.85;1.40;;;;;;;18.57;28.83;99142.50;4955293;28;20069;-68
2022/06/07 09:39:08;;;;;;;8.02;1.30;;;;;;;18.66;29.92;99139.94;4954957;28;20142;-68
2022/06/07 09:41:37;;;;;;;2.45;1.20;;;;;;;18.55;30.84;99141.22;4953886;28;20050;-69
2022/06/07 09:44:08;;;;;;;1.17;1.00;;;;;;;18.47;30.88;99145.38;4970936;28;20051;-68
2022/06/07 09:46:34;;;;;;;;;;;;;;;18.43;32.05;99155.09;4955086;28;20073;-67
2022/06/07 09:49:01;;;;;;;2.85;1.25;;;;;;;18.46;31.71;99156.41;4973150;28;19929;-67
2022/06/07 09:51:37;;;;;;;1.23;1.13;;;;;;;18.50;31.00;99150.16;4972363;28;20062;-68
2022/06/07 09:54:13;;;;;;;4.60;1.30;;;;;;;18.49;30.25;99140.50;4954533;28;20062;-67
2022/06/07 09:56:50;;;;;;;2.67;1.85;;;;;;;18.58;30.54;99138.72;4958614;28;20157;-68
2022/06/07 09:59:34;;;;;;;3.60;1.92;;;;;;;18.73;30.36;99135.00;4954876;28;20039;-68
2022/06/07 10:02:30;;;;;;;2.55;1.20;;;;;;;18.64;28.78;99142.13;4955455;28;20058;-67
2022/06/07 10:05:17;;;;;;;1.85;1.45;;;;;;;18.53;30.39;99140.69;4971843;28;20039;-67
2022/06/07 10:08:05;;;;;;;4.28;1.38;;;;;;;18.64;31.26;99135.97;4954083;28;20039;-67
2022/06/07 10:10:59;;;;;;;1.55;1.25;;;;;;;18.64;30.33;99125.22;4938097;28;20363;-67
2022/06/07 10:13:34;;;;;;;1.88;1.00;;;;;;;18.67;30.30;99128.09;4956189;28;20065;-69
2022/06/07 10:16:06;;;;;;;3.53;1.30;;;;;;;18.75;29.29;99132.81;4972242;28;20222;-67
2022/06/07 10:18:46;;;;;;;3.60;1.30;;;;;;;18.78;27.70;99129.53;4955017;28;20038;-67
2022/06/07 10:21:20;;;;;;;1.40;1.30;;;;;;;18.79;29.74;99125.75;4972611;28;20043;-67
2022/06/07 10:23:54;;;;;;;1.30;1.20;;;;;;;18.85;31.17;99121.06;4939409;28;20109;-67
2022/06/07 10:26:31;;;;;;;1.88;1.45;;;;;;;18.90;30.28;99131.72;4972022;28;20053;-67
2022/06/07 10:29:12;;;;;;;1.00;1.00;;;;;;;18.86;30.39;99124.59;4955029;28;20038;-68
2022/06/07 10:31:43;;;;;;;1.30;1.20;;;;;;;18.81;27.74;99122.78;4970551;28;20082;-67
2022/06/07 10:34:17;;;;;;;2.08;1.15;;;;;;;18.82;28.90;99121.69;4954155;28;20050;-67
2022/06/07 10:36:54;;;;;;;3.35;1.20;;;;;;;18.76;29.83;99125.56;4954202;28;20101;-67
2022/06/07 10:39:42;;;;;;;1.10;1.10;;;;;;;18.66;28.54;99121.16;4973094;28;20053;-67
2022/06/07 10:42:26;;;;;;;1.17;1.08;;;;;;;18.72;29.07;99116.47;4970506;28;20046;-68
2022/06/07 10:45:11;;;;;;;7.95;1.33;;;;;;;18.80;27.46;99108.56;4972521;28;20050;-68
2022/06/07 10:47:51;;;;;;;1.50;1.23;;;;;;;18.89;27.44;99108.66;4972831;28;20137;-66
2022/06/07 10:50:26;;;;;;;2.45;1.25;;;;;;;19.01;27.36;99100.88;4953385;28;20444;-67
2022/06/07 10:52:52;;;;;;;1.77;1.40;;;;;;;18.99;27.86;99108.44;4937064;28;20408;-68
2022/06/07 10:55:30;;;;;;;2.35;1.17;;;;;;;18.96;27.54;99103.66;4954443;28;20058;-67
2022/06/07 10:58:16;;;;;;;1.98;1.20;;;;;;;18.87;24.72;99102.78;4971407;28;20666;-69
2022/06/07 11:00:53;;;;;;;1.75;1.10;;;;;;;18.88;25.53;99107.06;4970724;28;20465;-70
2022/06/07 11:03:44;;;;;;;2.63;1.10;;;;;;;18.96;25.96;99100.19;4954300;28;20105;-68
2022/06/07 11:09:38;;;;;;;2.05;1.05;;;;;;;18.97;27.12;99094.53;4936013;29;20043;-68
2022/06/07 11:12:17;;;;;;;2.78;1.20;;;;;;;18.95;23.94;99101.31;4962125;28;20089;-69
2022/06/07 11:15:12;;;;;;;1.70;1.05;;;;;;;19.02;25.68;99090.94;4952914;28;20428;-69
2022/06/07 11:18:04;;;;;;;1.98;1.20;;;;;;;18.98;27.17;99108.75;4956398;28;20047;-68
2022/06/07 11:20:31;;;;;;;2.33;1.48;;;;;;;18.97;27.03;99099.09;4953457;28;20513;-69
2022/06/07 11:23:02;;;;;;;3.85;1.45;;;;;;;18.99;27.70;99099.59;4938000;28;20042;-70
2022/06/07 11:25:41;;;;;;;;;;;;;;;18.94;26.84;99100.50;4970704;28;20062;-66
2022/06/07 11:28:13;;;;;;;3.22;1.40;;;;;;;19.01;26.60;99102.78;4952179;28;19921;-66
2022/06/07 11:30:39;;;;;;;3.17;1.20;;;;;;;19.02;26.65;99088.25;4953777;28;20070;-66
2022/06/07 11:33:38;;;;;;;1.40;1.30;;;;;;;19.11;26.74;99099.09;4952592;28;20092;-67
2022/06/07 11:36:12;;;;;;;2.20;1.20;;;;;;;19.13;26.73;99084.25;4953213;28;20458;-66
2022/06/07 11:39:29;;;;;;;12.35;2.25;;;;;;;19.16;25.33;99080.97;4954489;28;20074;-66
2022/06/07 11:42:21;;;;;;;2.63;1.63;;;;;;;19.24;25.89;99088.31;4920129;28;20105;-67
2022/06/07 11:45:02;;;;;;;1.73;1.25;;;;;;;19.25;25.51;99092.59;4963350;28;20488;-67
2022/06/07 11:47:51;;;;;;;4.53;1.70;;;;;;;19.25;25.41;99086.44;4969451;28;20070;-71
2022/06/07 11:50:28;;;;;;;2.72;1.40;;;;;;;19.21;25.19;99075.50;4957855;28;20051;-69
2022/06/07 11:52:58;;;;;;;2.28;1.38;;;;;;;19.25;24.82;99075.69;4971419;28;20051;-69
2022/06/07 11:55:25;;;;;;;;;;;;;;;19.23;24.94;99075.97;4972360;28;20085;-70
2022/06/07 11:57:54;;;;;;;6.15;1.50;;;;;;;19.23;24.10;99067.13;4953537;28;19926;-71
2022/06/07 12:00:19;;;;;;;5.50;1.70;;;;;;;19.22;23.54;99062.84;4951384;29;20441;-71
2022/06/07 12:02:57;;;;;;;2.55;1.50;;;;;;;19.25;24.49;99075.69;4966190;28;20060;-71
2022/06/07 12:05:55;;;;;;;2.97;1.50;;;;;;;19.26;24.48;99067.31;4969201;28;20051;-67
2022/06/07 12:09:03;;;;;;;2.55;1.15;;;;;;;19.24;24.85;99076.78;4948207;28;20126;-70
2022/06/07 12:11:32;;;;;;;3.58;1.15;;;;;;;19.18;24.13;99069.94;4888587;29;20074;-71
2022/06/07 12:14:04;;;;;;;1.08;0.98;;;;;;;19.13;23.97;99059.28;4924960;28;20039;-68
2022/06/07 12:16:40;;;;;;;2.33;1.23;;;;;;;19.15;25.04;99073.19;4950053;28;20070;-66